Time;durP1;ratioP1;P1;durP2;ratioP2;P2;SDS_P1;SDS_P2;PMS_P1;PMS_P2;Temp;Humidity;BMP_temperature;BMP_pressure;BME280_temperature;BME280_humidity;BME280_pressure;Samples;Min_cycle;Max_cycle;Signal;HPM_P1;HPM_P2
2022/03/30 00:01:59;;;;;;;6.32;2.00;;;;;;;4.98;41.27;99895.47;5020035;28;20065;-60
2022/03/30 00:04:32;;;;;;;4.72;1.70;;;;;;;4.95;38.53;99885.13;5020345;28;20088;-60
2022/03/30 00:07:03;;;;;;;6.10;1.55;;;;;;;5.03;36.95;99887.69;5020342;28;20395;-61
2022/03/30 00:09:34;;;;;;;4.60;1.70;;;;;;;4.97;36.77;99881.66;5019950;28;20053;-60
2022/03/30 00:12:05;;;;;;;6.70;1.63;;;;;;;4.74;38.41;99902.38;5019678;28;20378;-60
2022/03/30 00:14:37;;;;;;;5.72;1.77;;;;;;;4.67;37.71;99881.66;5019663;28;20053;-60
2022/03/30 00:17:08;;;;;;;5.70;1.92;;;;;;;4.62;38.39;99886.81;5019684;28;20045;-60
2022/03/30 00:19:40;;;;;;;5.35;1.92;;;;;;;4.76;38.54;99889.41;5033897;28;20045;-60
2022/03/30 00:22:11;;;;;;;6.25;1.80;;;;;;;5.11;39.33;99886.81;5028679;28;20048;-60
2022/03/30 00:24:43;;;;;;;5.50;1.80;;;;;;;5.16;37.25;99889.41;5011041;28;20065;-60
2022/03/30 00:27:14;;;;;;;6.53;1.98;;;;;;;4.84;38.96;99855.75;5019714;28;20057;-60
2022/03/30 00:29:46;;;;;;;7.10;2.30;;;;;;;4.85;39.08;99891.16;5019132;28;20295;-60
2022/03/30 00:32:17;;;;;;;4.25;1.77;;;;;;;4.90;36.79;99886.84;5019447;28;20065;-60
2022/03/30 00:34:49;;;;;;;9.48;2.55;;;;;;;4.85;38.08;99889.41;5019591;28;20062;-60
2022/03/30 00:37:20;;;;;;;9.32;2.13;;;;;;;4.68;38.93;99896.31;5018877;28;20125;-60
2022/03/30 00:39:52;;;;;;;4.82;1.83;;;;;;;4.85;37.24;99893.75;5018260;28;20329;-59
2022/03/30 00:42:24;;;;;;;6.88;2.10;;;;;;;5.07;38.57;99895.47;5019242;28;20064;-59
2022/03/30 00:44:55;;;;;;;5.93;2.10;;;;;;;5.29;36.58;99890.28;5019196;28;20064;-60
2022/03/30 00:47:27;;;;;;;9.10;2.65;;;;;;;5.58;37.75;99867.78;5032933;28;20121;-60
2022/03/30 00:50:00;;;;;;;4.65;1.75;;;;;;;5.91;37.83;99891.00;5037771;28;20084;-59
2022/03/30 00:52:30;;;;;;;5.50;2.35;;;;;;;6.21;37.46;99890.06;5038512;28;20064;-59
2022/03/30 00:55:02;;;;;;;10.38;2.42;;;;;;;6.26;36.05;99888.28;5038916;28;20057;-59
2022/03/30 00:57:33;;;;;;;11.00;2.10;;;;;;;5.98;35.26;99893.59;5038194;28;20045;-61
2022/03/30 01:00:05;;;;;;;8.18;2.65;;;;;;;5.76;35.22;99899.69;5019522;28;20046;-59
2022/03/30 01:02:39;;;;;;;5.85;1.67;;;;;;;5.36;34.98;99892.00;5038818;28;20317;-59
2022/03/30 01:05:12;;;;;;;5.63;1.95;;;;;;;5.31;34.91;99909.28;5038511;28;20080;-59
2022/03/30 01:07:43;;;;;;;3.72;2.20;;;;;;;4.93;35.89;99904.97;5038515;28;20132;-59
2022/03/30 01:10:15;;;;;;;4.63;1.52;;;;;;;4.89;36.62;99911.00;5033549;28;20053;-59
2022/03/30 01:12:46;;;;;;;6.68;2.30;;;;;;;4.99;37.39;99910.13;5012887;28;20138;-60
2022/03/30 01:15:17;;;;;;;6.20;2.45;;;;;;;5.23;38.44;99926.56;5007092;28;20124;-59
2022/03/30 01:17:48;;;;;;;16.40;2.20;;;;;;;5.40;38.48;99909.28;4999191;28;20296;-60
2022/03/30 01:20:22;;;;;;;10.73;2.78;;;;;;;5.67;35.23;99929.09;4999315;28;20183;-59
2022/03/30 01:22:55;;;;;;;39.80;3.85;;;;;;;5.63;36.88;99936.00;5009368;28;20116;-59
2022/03/30 01:25:26;;;;;;;8.35;1.77;;;;;;;5.69;37.00;99936.88;5038525;28;20045;-59
2022/03/30 01:27:57;;;;;;;8.20;2.35;;;;;;;5.39;35.51;99939.50;5038169;28;20297;-60
2022/03/30 01:33:15;;;;;;;7.10;2.30;;;;;;;5.54;36.54;99943.81;5028552;28;20064;-59
2022/03/30 01:35:46;;;;;;;8.05;2.13;;;;;;;5.32;36.74;99957.66;5017859;28;20058;-59
2022/03/30 01:38:18;;;;;;;4.32;1.88;;;;;;;5.36;38.11;99964.53;5017285;28;20054;-59
2022/03/30 01:40:49;;;;;;;6.22;1.73;;;;;;;5.35;35.82;99968.00;5018187;28;20120;-58
2022/03/30 01:43:21;;;;;;;8.73;2.28;;;;;;;5.14;38.53;99961.97;5018233;28;20106;-58
2022/03/30 01:45:52;;;;;;;8.98;1.63;;;;;;;5.06;38.41;99976.59;5018045;28;20116;-59
2022/03/30 01:48:23;;;;;;;10.68;2.22;;;;;;;4.91;40.12;99981.75;5016966;28;20288;-59
2022/03/30 01:50:54;;;;;;;10.02;2.10;;;;;;;5.11;40.93;99995.59;5016764;28;20113;-59
2022/03/30 01:53:26;;;;;;;6.55;2.20;;;;;;;5.29;39.83;99999.06;5019591;28;20049;-59
2022/03/30 01:55:57;;;;;;;9.25;2.40;;;;;;;5.51;41.21;99985.25;5023515;28;20137;-59
2022/03/30 01:58:28;;;;;;;5.72;2.00;;;;;;;5.38;37.98;99981.81;5023250;28;20081;-59
2022/03/30 02:00:59;;;;;;;6.22;1.90;;;;;;;5.11;38.06;99994.75;5023185;28;20151;-59
2022/03/30 02:03:30;;;;;;;8.52;2.50;;;;;;;4.63;37.77;99888.53;5023279;28;20067;-59
2022/03/30 02:06:02;;;;;;;5.55;2.05;;;;;;;4.80;36.69;99923.94;5023766;28;20116;-59
2022/03/30 02:08:34;;;;;;;3.15;1.60;;;;;;;4.94;38.94;99958.47;5023796;28;20046;-58
2022/03/30 02:11:05;;;;;;;8.45;1.95;;;;;;;4.97;38.78;99986.97;5021589;28;20152;-59
2022/03/30 02:13:36;;;;;;;8.38;2.00;;;;;;;5.19;39.56;99986.13;5024737;28;20053;-59
2022/03/30 02:16:07;;;;;;;3.13;1.90;;;;;;;5.18;39.50;99994.75;5024182;28;20049;-59
2022/03/30 02:18:38;;;;;;;4.50;1.90;;;;;;;5.45;39.32;99995.66;5024193;28;20293;-59
2022/03/30 02:21:09;;;;;;;5.47;2.00;;;;;;;5.56;38.31;99999.09;5024128;28;20085;-59
2022/03/30 02:23:41;;;;;;;17.58;3.20;;;;;;;5.45;39.12;100006.00;5023788;28;20415;-59
2022/03/30 02:26:12;;;;;;;7.53;2.00;;;;;;;5.38;40.25;100009.47;5027460;28;20048;-59
2022/03/30 02:28:44;;;;;;;13.23;1.90;;;;;;;5.37;40.24;99997.38;5028340;28;20273;-59
2022/03/30 02:31:15;;;;;;;3.03;1.60;;;;;;;5.16;37.94;99999.06;5027497;28;20073;-60
2022/03/30 02:33:46;;;;;;;4.80;1.70;;;;;;;4.94;39.20;100002.47;5027546;28;20477;-59
2022/03/30 02:36:17;;;;;;;4.40;2.00;;;;;;;4.60;39.54;99996.34;5027833;28;20042;-59
2022/03/30 02:38:50;;;;;;;4.78;1.50;;;;;;;4.32;39.76;99994.50;5027532;28;20050;-60
2022/03/30 02:41:20;;;;;;;8.73;2.22;;;;;;;4.37;41.68;100004.00;5027068;28;20248;-59
2022/03/30 02:43:51;;;;;;;9.00;2.05;;;;;;;4.83;40.83;99999.00;5027766;28;20118;-59
2022/03/30 02:46:22;;;;;;;7.85;2.08;;;;;;;4.83;40.26;99993.84;5027722;28;20080;-59
2022/03/30 02:48:53;;;;;;;7.85;1.95;;;;;;;4.94;38.60;100000.78;5027924;28;20213;-59
2022/03/30 02:51:25;;;;;;;4.40;1.77;;;;;;;4.56;37.67;99992.88;5027613;28;20050;-59
2022/03/30 02:53:58;;;;;;;3.70;1.50;;;;;;;4.39;39.15;99994.53;5027569;28;20077;-59
2022/03/30 02:56:28;;;;;;;2.63;1.40;;;;;;;4.14;38.11;99981.47;5027817;28;20054;-59
2022/03/30 02:58:59;;;;;;;3.70;1.40;;;;;;;4.09;37.58;99988.34;5025895;28;20095;-59
2022/03/30 03:01:30;;;;;;;9.13;1.88;;;;;;;4.24;37.20;99988.44;5027790;28;20209;-58
2022/03/30 03:04:00;;;;;;;4.30;1.73;;;;;;;4.25;38.54;99995.34;5026782;28;20061;-58
2022/03/30 03:06:31;;;;;;;10.07;2.30;;;;;;;4.65;39.36;100011.03;5027366;28;20100;-58
2022/03/30 03:09:04;;;;;;;4.82;1.98;;;;;;;4.70;37.49;100009.31;5026557;28;20041;-58
2022/03/30 03:11:35;;;;;;;3.65;1.50;;;;;;;4.58;40.51;99957.53;5027226;28;20773;-58
2022/03/30 03:14:07;;;;;;;9.73;1.98;;;;;;;4.96;38.38;100000.75;5027593;28;20096;-59
2022/03/30 03:16:37;;;;;;;1.67;1.33;;;;;;;4.74;33.56;99980.00;5027351;28;20049;-58
2022/03/30 03:19:08;;;;;;;11.75;2.58;;;;;;;4.56;34.29;99989.44;5027142;28;20786;-59
2022/03/30 03:21:39;;;;;;;5.45;1.50;;;;;;;4.39;35.46;100002.28;5027359;28;20064;-59
2022/03/30 03:24:11;;;;;;;3.88;1.40;;;;;;;4.04;34.13;100010.72;5027347;28;20308;-59
2022/03/30 03:26:42;;;;;;;10.80;2.20;;;;;;;4.25;37.71;100026.38;5027304;28;20217;-59
2022/03/30 03:29:13;;;;;;;11.25;2.30;;;;;;;4.43;38.48;100019.56;5027196;28;20042;-59
2022/03/30 03:31:44;;;;;;;2.30;1.35;;;;;;;4.26;36.43;100017.75;5027164;28;20056;-59
2022/03/30 03:34:15;;;;;;;3.63;1.83;;;;;;;4.08;37.52;99996.97;5027319;28;20056;-59
2022/03/30 03:36:45;;;;;;;17.63;2.55;;;;;;;4.32;36.16;100022.97;5026960;28;20096;-59
2022/03/30 03:39:18;;;;;;;4.03;1.70;;;;;;;4.28;36.05;100026.38;5027115;28;20045;-58
2022/03/30 03:41:48;;;;;;;7.13;1.92;;;;;;;4.42;35.03;100018.72;5026855;28;20050;-59
2022/03/30 03:44:19;;;;;;;7.78;1.75;;;;;;;4.41;37.86;100010.94;5026860;28;20053;-59
2022/03/30 03:46:50;;;;;;;5.25;1.60;;;;;;;4.53;37.69;100026.50;5026696;28;20104;-58
2022/03/30 03:49:21;;;;;;;5.70;1.90;;;;;;;4.57;36.31;100027.38;5026771;28;20046;-58
2022/03/30 03:51:51;;;;;;;2.90;1.60;;;;;;;4.23;36.77;100033.25;5026701;28;20045;-60
2022/03/30 03:54:24;;;;;;;3.83;1.55;;;;;;;4.04;36.52;100031.41;5026756;28;20087;-58
2022/03/30 03:56:54;;;;;;;5.13;1.92;;;;;;;4.10;38.21;100031.47;5026606;28;20111;-58
2022/03/30 03:59:25;;;;;;;6.10;1.70;;;;;;;4.24;36.77;100027.25;5026871;28;20141;-58
2022/03/30 04:01:56;;;;;;;6.72;2.05;;;;;;;4.24;38.29;100035.00;5026428;28;20122;-58
2022/03/30 04:04:27;;;;;;;3.28;1.63;;;;;;;4.27;37.25;100024.66;5026621;28;20136;-59
2022/03/30 04:06:58;;;;;;;23.58;2.65;;;;;;;4.50;38.09;100031.69;5026726;28;20306;-58
2022/03/30 04:09:30;;;;;;;6.22;2.03;;;;;;;4.50;37.65;100026.50;5026264;28;20054;-59
2022/03/30 04:12:00;;;;;;;3.65;1.50;;;;;;;4.25;36.94;100003.09;5026202;28;20364;-58
2022/03/30 04:14:31;;;;;;;7.68;1.73;;;;;;;4.57;40.05;100033.44;5026305;28;20053;-59
2022/03/30 04:17:02;;;;;;;5.57;1.80;;;;;;;4.80;39.74;100033.53;5026282;28;20069;-60
2022/03/30 04:19:33;;;;;;;15.32;2.17;;;;;;;4.93;40.11;100031.81;5026454;28;20115;-59
2022/03/30 04:22:03;;;;;;;2.80;1.75;;;;;;;4.68;36.01;100021.38;5025809;28;20045;-59
2022/03/30 04:24:36;;;;;;;6.47;1.55;;;;;;;4.08;36.37;100020.25;5026199;28;20104;-59
2022/03/30 04:27:06;;;;;;;10.05;2.40;;;;;;;4.08;38.46;100031.44;5025883;28;20389;-59
2022/03/30 04:29:37;;;;;;;3.03;1.40;;;;;;;4.17;38.16;100043.56;5026193;28;20057;-58
2022/03/30 04:32:09;;;;;;;4.47;1.75;;;;;;;3.75;38.11;100019.16;5026064;28;20130;-59
2022/03/30 04:34:39;;;;;;;6.30;1.52;;;;;;;3.62;38.04;100053.50;5026140;28;20367;-58
2022/03/30 04:37:10;;;;;;;8.23;2.00;;;;;;;4.02;39.45;100048.63;5026051;28;20050;-59
2022/03/30 04:39:43;;;;;;;4.90;1.70;;;;;;;3.82;36.62;100046.78;5025886;28;20213;-59
2022/03/30 04:42:14;;;;;;;4.22;1.40;;;;;;;3.98;39.85;100052.06;5025563;28;20240;-60
2022/03/30 04:44:44;;;;;;;2.97;1.52;;;;;;;3.89;38.25;100025.31;5025812;28;20042;-61
2022/03/30 04:47:15;;;;;;;3.10;1.83;;;;;;;3.96;39.36;100059.78;5023717;28;20046;-60
2022/03/30 04:49:45;;;;;;;5.18;2.10;;;;;;;4.27;39.66;100071.22;5025528;28;20360;-60
2022/03/30 04:52:18;;;;;;;6.38;2.33;;;;;;;4.27;40.10;100066.06;5022488;28;20083;-60
2022/03/30 04:54:50;;;;;;;8.32;1.70;;;;;;;4.13;39.43;100072.84;5024529;28;20086;-60
2022/03/30 04:57:21;;;;;;;5.75;2.20;;;;;;;4.02;40.90;100053.78;5024688;28;20105;-59
2022/03/30 04:59:52;;;;;;;3.45;1.55;;;;;;;4.20;39.14;100071.19;5024160;28;20054;-59
2022/03/30 05:02:22;;;;;;;12.95;2.22;;;;;;;4.01;40.40;100067.59;5025459;28;20061;-60
2022/03/30 05:04:54;;;;;;;4.13;1.73;;;;;;;4.20;40.79;100064.28;5025058;28;20241;-59
2022/03/30 05:07:24;;;;;;;7.93;2.70;;;;;;;4.45;40.98;100054.06;5025227;28;20050;-59
2022/03/30 05:09:57;;;;;;;8.18;1.92;;;;;;;4.69;41.28;100069.72;5025114;28;20231;-59
2022/03/30 05:12:28;;;;;;;9.90;2.33;;;;;;;4.73;41.50;100055.06;5024128;28;20742;-60
2022/03/30 05:14:59;;;;;;;16.50;2.00;;;;;;;4.76;41.02;100074.03;5023709;28;20864;-62
2022/03/30 05:17:29;;;;;;;52.53;4.88;;;;;;;4.56;40.34;100086.03;5023009;28;20292;-60
2022/03/30 05:20:00;;;;;;;2.22;1.60;;;;;;;4.56;40.39;100080.84;5022680;28;20049;-60
2022/03/30 05:22:31;;;;;;;7.70;1.75;;;;;;;4.51;40.27;100077.38;5023788;28;20065;-60
2022/03/30 05:25:03;;;;;;;7.85;1.90;;;;;;;4.33;39.30;100080.72;5024066;28;20221;-61
2022/03/30 05:27:34;;;;;;;7.18;2.45;;;;;;;4.39;41.20;100085.94;5024180;28;20240;-60
2022/03/30 05:30:05;;;;;;;7.88;2.20;;;;;;;4.36;39.79;100108.34;5023368;28;20122;-59
2022/03/30 05:32:36;;;;;;;2.70;1.80;;;;;;;4.38;39.74;100091.13;5023913;28;20107;-59
2022/03/30 05:35:08;;;;;;;6.13;2.20;;;;;;;4.48;40.84;100085.13;5023595;28;20297;-59
2022/03/30 05:37:40;;;;;;;9.13;2.65;;;;;;;4.58;40.70;100097.25;5024115;28;20391;-60
2022/03/30 05:40:15;;;;;;;10.40;1.48;;;;;;;4.52;40.91;100094.66;5023974;28;20053;-60
2022/03/30 05:42:46;;;;;;;29.40;3.00;;;;;;;4.43;40.32;100092.00;5021760;28;20049;-60
2022/03/30 05:45:17;;;;;;;8.52;1.85;;;;;;;4.17;38.70;100074.63;5024107;28;20053;-60
2022/03/30 05:47:47;;;;;;;10.40;3.08;;;;;;;4.08;39.07;100100.41;5024063;28;20121;-60
2022/03/30 05:50:18;;;;;;;11.40;2.38;;;;;;;4.07;39.63;100094.38;5024757;28;20041;-60
2022/03/30 05:52:49;;;;;;;12.25;1.80;;;;;;;3.93;39.47;100084.78;5024363;28;20049;-60
2022/03/30 05:55:21;;;;;;;10.38;1.83;;;;;;;3.98;40.32;100088.25;5024348;28;20061;-60
2022/03/30 05:57:51;;;;;;;7.47;2.33;;;;;;;3.95;39.37;100093.41;5024521;28;20084;-59
2022/03/30 06:00:22;;;;;;;7.68;1.63;;;;;;;3.86;41.24;100084.72;5022454;28;20061;-60
2022/03/30 06:02:53;;;;;;;14.30;2.20;;;;;;;3.77;41.96;100094.09;5023452;28;20049;-60
2022/03/30 06:05:23;;;;;;;6.43;1.85;;;;;;;3.94;40.91;100102.00;5024168;28;20080;-60
2022/03/30 06:07:57;;;;;;;5.43;2.10;;;;;;;4.09;41.30;100109.88;5024619;28;20053;-60
2022/03/30 06:10:29;;;;;;;10.45;2.05;;;;;;;4.06;42.35;100102.97;5023634;28;20057;-61
2022/03/30 06:13:01;;;;;;;5.18;2.50;;;;;;;3.93;42.95;100064.09;5024119;28;20092;-61
2022/03/30 06:15:33;;;;;;;14.80;2.40;;;;;;;4.10;41.30;100098.69;5024043;28;20042;-61
2022/03/30 06:18:10;;;;;;;10.68;2.53;;;;;;;3.97;40.74;100102.03;5024051;28;20061;-60
2022/03/30 06:20:41;;;;;;;4.30;1.67;;;;;;;3.88;40.68;100098.50;5024351;28;20362;-61
2022/03/30 06:23:12;;;;;;;3.33;1.42;;;;;;;3.42;40.52;100046.47;5024238;28;20061;-61
2022/03/30 06:25:44;;;;;;;33.47;3.63;;;;;;;3.61;40.56;100099.13;5024118;28;20053;-62
2022/03/30 06:28:15;;;;;;;4.32;1.60;;;;;;;3.59;41.83;100106.00;5024009;28;20388;-61
2022/03/30 06:30:46;;;;;;;6.47;2.25;;;;;;;3.70;41.54;100103.53;5023830;28;20056;-60
2022/03/30 06:33:16;;;;;;;9.18;1.63;;;;;;;3.63;41.52;100086.25;5024091;28;20476;-61
2022/03/30 06:35:47;;;;;;;9.68;2.33;;;;;;;3.73;42.18;100103.56;5023501;28;20057;-60
2022/03/30 06:38:17;;;;;;;4.78;1.70;;;;;;;3.76;42.09;100113.91;5023712;28;20099;-61
2022/03/30 06:40:50;;;;;;;2.72;1.73;;;;;;;3.65;40.62;100105.22;5023724;28;20105;-60
2022/03/30 06:43:20;;;;;;;6.88;2.92;;;;;;;3.78;40.69;100109.63;5023103;28;20061;-60
2022/03/30 06:45:51;;;;;;;6.57;2.00;;;;;;;3.88;40.05;100129.53;5023360;28;20055;-62
2022/03/30 06:48:22;;;;;;;10.75;2.72;;;;;;;3.97;42.39;100107.19;5022929;28;20076;-61
2022/03/30 06:50:53;;;;;;;10.27;1.80;;;;;;;4.02;42.24;100124.50;5023177;28;20276;-61
2022/03/30 06:53:24;;;;;;;4.18;1.90;;;;;;;3.89;41.97;100109.72;5022774;28;20054;-60
2022/03/30 06:55:56;;;;;;;9.45;2.50;;;;;;;3.87;42.59;100112.31;5022922;28;20049;-60
2022/03/30 06:58:27;;;;;;;4.45;1.88;;;;;;;3.71;43.34;100125.94;5023372;28;20378;-60
2022/03/30 07:00:59;;;;;;;12.75;1.98;;;;;;;3.73;43.22;100113.91;5023438;28;20057;-61
2022/03/30 07:03:30;;;;;;;5.15;1.65;;;;;;;3.55;42.96;100108.56;5023724;28;20069;-61
2022/03/30 07:06:04;;;;;;;3.55;1.90;;;;;;;3.71;43.02;100131.09;5023024;28;20061;-60
2022/03/30 07:11:24;;;;;;;8.93;2.10;;;;;;;3.50;44.35;100141.25;5025064;28;20064;-59
2022/03/30 07:13:57;;;;;;;3.95;1.73;;;;;;;3.53;44.78;100130.94;5024313;28;20057;-59
2022/03/30 07:16:27;;;;;;;6.55;1.90;;;;;;;3.51;45.10;100138.66;5026352;28;20112;-60
2022/03/30 07:18:58;;;;;;;5.55;1.75;;;;;;;3.46;44.48;100135.16;5026433;28;20054;-60
2022/03/30 07:21:28;;;;;;;12.88;2.83;;;;;;;3.46;44.68;100132.56;5027081;28;20303;-60
2022/03/30 07:23:59;;;;;;;3.53;1.70;;;;;;;3.41;42.85;100145.44;5027107;28;20097;-60
2022/03/30 07:26:31;;;;;;;6.85;2.00;;;;;;;3.35;43.07;100129.88;5027452;28;20061;-60
2022/03/30 07:29:02;;;;;;;5.63;2.28;;;;;;;3.34;43.51;100143.63;5027483;28;20232;-60
2022/03/30 07:31:33;;;;;;;13.30;2.80;;;;;;;3.28;43.55;100138.41;5026667;28;20050;-60
2022/03/30 07:34:03;;;;;;;12.88;2.08;;;;;;;2.93;44.00;100102.72;5026060;28;20045;-60
2022/03/30 07:36:34;;;;;;;3.15;1.80;;;;;;;3.20;44.03;100152.97;5026830;28;20054;-61
2022/03/30 07:39:05;;;;;;;4.15;1.75;;;;;;;3.11;43.91;100147.69;5026686;28;20077;-61
2022/03/30 07:41:37;;;;;;;12.88;2.42;;;;;;;3.09;43.55;100151.97;5026729;28;20112;-61
2022/03/30 07:44:08;;;;;;;8.63;1.95;;;;;;;3.01;43.61;100173.38;5026494;28;20080;-59
2022/03/30 07:46:38;;;;;;;5.25;1.77;;;;;;;2.93;43.66;100164.69;5026900;28;20287;-60
2022/03/30 07:49:09;;;;;;;10.02;1.95;;;;;;;2.74;43.34;100121.41;5026768;28;20050;-59
2022/03/30 07:51:40;;;;;;;3.55;1.70;;;;;;;2.81;42.78;100164.50;5026914;28;20046;-60
2022/03/30 07:54:10;;;;;;;20.10;2.55;;;;;;;2.79;44.46;100163.63;5026608;28;20383;-59
2022/03/30 07:56:43;;;;;;;5.63;1.95;;;;;;;2.76;42.90;100161.00;5026704;28;20355;-59
2022/03/30 07:59:14;;;;;;;19.15;2.78;;;;;;;2.70;42.45;100166.09;5026746;28;20335;-59
2022/03/30 08:01:44;;;;;;;2.90;1.50;;;;;;;1.90;43.33;100036.88;5026259;28;20303;-58
2022/03/30 08:04:15;;;;;;;7.50;2.15;;;;;;;2.45;43.18;100134.78;5026525;28;20046;-58
2022/03/30 08:06:46;;;;;;;7.85;2.30;;;;;;;2.67;45.10;100166.03;5026496;28;20065;-59
2022/03/30 08:09:17;;;;;;;6.57;2.75;;;;;;;2.52;44.82;100175.31;5026762;28;20052;-59
2022/03/30 08:11:49;;;;;;;5.15;1.95;;;;;;;2.56;44.04;100184.78;5024268;28;20117;-59
2022/03/30 08:14:19;;;;;;;3.30;1.90;;;;;;;2.54;45.81;100191.63;5026596;28;20045;-59
2022/03/30 08:16:50;;;;;;;4.32;2.42;;;;;;;2.51;44.79;100186.44;5026060;28;20042;-59
2022/03/30 08:19:20;;;;;;;6.95;2.20;;;;;;;2.48;44.51;100201.88;5026459;28;20056;-58
2022/03/30 08:24:40;;;;;;;27.63;3.17;;;;;;;2.36;45.03;100202.53;5026271;28;20197;-59
2022/03/30 08:27:12;;;;;;;4.13;1.90;;;;;;;2.35;45.24;100205.13;5026376;28;20064;-59
2022/03/30 08:29:44;;;;;;;3.25;1.73;;;;;;;1.98;45.22;100147.81;5026096;28;20064;-59
2022/03/30 08:32:15;;;;;;;5.32;2.10;;;;;;;2.19;46.56;100197.97;5024917;28;20076;-60
2022/03/30 08:34:46;;;;;;;8.50;2.03;;;;;;;1.98;47.81;100193.34;5025631;28;20120;-59
2022/03/30 08:37:18;;;;;;;27.00;2.53;;;;;;;1.88;47.15;100172.56;5025676;28;20045;-59
2022/03/30 08:39:55;;;;;;;6.82;2.00;;;;;;;2.02;48.20;100221.75;5025892;28;20049;-59
2022/03/30 08:42:27;;;;;;;6.57;2.47;;;;;;;1.98;47.63;100225.13;5025887;28;20362;-59
2022/03/30 08:44:59;;;;;;;3.75;1.67;;;;;;;1.94;46.69;100218.16;5025476;28;20125;-58
2022/03/30 08:47:30;;;;;;;9.25;2.00;;;;;;;1.99;47.96;100236.28;5025565;28;20323;-58
2022/03/30 08:50:01;;;;;;;6.57;2.25;;;;;;;1.89;49.07;100232.66;5025529;28;20049;-58
2022/03/30 08:52:32;;;;;;;8.10;2.03;;;;;;;1.80;49.34;100235.06;5025824;28;20092;-58
2022/03/30 08:55:02;;;;;;;9.02;2.53;;;;;;;1.75;49.83;100241.84;5025555;28;20217;-58
2022/03/30 08:57:35;;;;;;;4.35;2.30;;;;;;;1.68;50.90;100241.75;5025337;28;20073;-59
2022/03/30 09:00:09;;;;;;;6.43;2.60;;;;;;;1.62;49.07;100241.63;5025484;28;20317;-59
2022/03/30 09:02:41;;;;;;;12.30;2.30;;;;;;;1.62;48.02;100251.94;5025115;28;20056;-60
2022/03/30 09:05:19;;;;;;;7.28;2.95;;;;;;;1.57;49.62;100252.66;5026081;28;20113;-59
2022/03/30 09:07:51;;;;;;;7.60;2.38;;;;;;;1.56;49.74;100259.53;5025289;28;20061;-60
2022/03/30 09:10:23;;;;;;;6.28;2.47;;;;;;;1.49;49.08;100247.38;5025266;28;20061;-58
2022/03/30 09:12:56;;;;;;;10.00;3.15;;;;;;;1.15;49.06;100205.50;5025339;28;20057;-60
2022/03/30 09:15:27;;;;;;;12.63;2.00;;;;;;;1.46;47.28;100265.34;5025256;28;20156;-59
2022/03/30 09:17:59;;;;;;;7.80;2.08;;;;;;;1.51;47.21;100274.03;5024180;28;20217;-59
2022/03/30 09:20:38;;;;;;;11.13;2.30;;;;;;;1.57;46.80;100271.56;5024775;28;20297;-59
2022/03/30 09:23:10;;;;;;;10.52;3.42;;;;;;;1.54;47.45;100284.38;5025041;28;20167;-59
2022/03/30 09:25:51;;;;;;;7.32;1.60;;;;;;;1.10;45.10;100209.69;5023357;28;20049;-60
2022/03/30 09:28:24;;;;;;;8.50;2.05;;;;;;;1.49;46.05;100286.00;5025163;28;20053;-59
2022/03/30 09:30:55;;;;;;;4.53;1.85;;;;;;;1.43;46.39;100286.75;5023926;28;20275;-59
2022/03/30 09:33:26;;;;;;;6.35;2.38;;;;;;;1.33;44.13;100265.94;5024484;28;20041;-58
2022/03/30 09:35:57;;;;;;;5.88;1.90;;;;;;;1.57;43.51;100294.72;5024939;28;20327;-58
2022/03/30 09:38:29;;;;;;;4.65;2.92;;;;;;;1.12;44.94;100217.41;5024606;28;20229;-59
2022/03/30 09:41:03;;;;;;;7.13;2.42;;;;;;;0.94;45.83;100207.63;5024651;28;20045;-58
2022/03/30 09:43:39;;;;;;;7.78;2.45;;;;;;;1.04;45.82;100254.16;5024900;28;20267;-59
2022/03/30 09:46:11;;;;;;;5.00;2.20;;;;;;;1.35;47.21;100292.53;5024744;28;20057;-59
2022/03/30 09:48:49;;;;;;;4.90;2.22;;;;;;;1.28;46.74;100307.88;5023969;28;21034;-59
2022/03/30 09:51:21;;;;;;;4.95;1.88;;;;;;;1.38;42.64;100302.94;5024164;28;20263;-59
2022/03/30 09:53:52;;;;;;;4.85;2.10;;;;;;;1.51;44.15;100304.91;5024713;28;20085;-59
2022/03/30 09:56:24;;;;;;;3.63;1.85;;;;;;;1.43;45.85;100311.63;5024677;28;20387;-59
2022/03/30 09:59:05;;;;;;;3.20;1.70;;;;;;;1.41;44.42;100318.44;5024408;28;20856;-59
2022/03/30 10:01:35;;;;;;;7.38;2.17;;;;;;;1.43;44.55;100321.94;5024542;28;20049;-59
2022/03/30 10:04:08;;;;;;;6.15;2.25;;;;;;;1.44;42.46;100297.91;5024207;28;20344;-59
2022/03/30 10:06:40;;;;;;;5.45;2.33;;;;;;;1.55;43.27;100309.31;5024424;28;20387;-59
2022/03/30 10:09:16;;;;;;;6.07;2.05;;;;;;;1.32;42.57;100277.03;5024713;28;20091;-59
2022/03/30 10:11:48;;;;;;;4.00;1.80;;;;;;;1.52;44.74;100322.09;5024036;28;20120;-59
2022/03/30 10:14:21;;;;;;;5.25;2.25;;;;;;;1.46;44.80;100327.13;5024237;28;20489;-59
2022/03/30 10:16:53;;;;;;;4.30;1.75;;;;;;;1.37;44.38;100337.22;5024326;28;20080;-59
2022/03/30 10:19:24;;;;;;;3.65;1.83;;;;;;;1.33;46.11;100301.97;5023998;28;20046;-59
2022/03/30 10:22:04;;;;;;;6.05;2.20;;;;;;;1.13;46.47;100286.94;5024466;28;20084;-59
2022/03/30 10:24:50;;;;;;;6.72;2.00;;;;;;;1.23;46.33;100324.94;5023977;28;20244;-59
2022/03/30 10:27:29;;;;;;;6.38;2.42;;;;;;;1.16;45.99;100328.19;5024030;28;20060;-59
2022/03/30 10:30:05;;;;;;;5.60;2.40;;;;;;;1.21;45.33;100336.03;5024007;28;20105;-58
2022/03/30 10:32:37;;;;;;;5.63;2.38;;;;;;;1.32;43.83;100341.41;5023735;28;20248;-59
2022/03/30 10:35:10;;;;;;;4.15;2.00;;;;;;;1.23;44.62;100342.94;5024146;28;20061;-59
2022/03/30 10:37:43;;;;;;;7.75;1.80;;;;;;;1.29;44.24;100340.50;5024101;28;20049;-59
2022/03/30 10:40:21;;;;;;;5.13;2.20;;;;;;;1.10;45.68;100322.91;5024213;28;20048;-60
2022/03/30 10:43:12;;;;;;;19.85;2.72;;;;;;;1.19;45.53;100359.13;5023582;28;20525;-59
2022/03/30 10:45:48;;;;;;;4.40;2.30;;;;;;;1.22;44.99;100363.50;5021132;28;20061;-59
2022/03/30 10:48:22;;;;;;;4.85;1.80;;;;;;;0.79;44.47;100305.88;5026991;28;20197;-59
2022/03/30 10:50:55;;;;;;;3.45;1.90;;;;;;;0.99;44.64;100326.94;5027446;28;20062;-58
2022/03/30 10:53:47;;;;;;;3.67;1.73;;;;;;;1.22;44.96;100366.97;5027527;28;20108;-59
2022/03/30 10:56:32;;;;;;;4.85;1.90;;;;;;;1.24;44.48;100378.13;5027390;28;20054;-59
2022/03/30 10:59:10;;;;;;;3.72;2.00;;;;;;;1.25;44.36;100373.88;5026616;28;20053;-60
2022/03/30 11:01:43;;;;;;;3.75;1.90;;;;;;;1.27;44.16;100383.38;5027445;28;20053;-59
2022/03/30 11:04:24;;;;;;;5.55;2.00;;;;;;;1.20;45.29;100391.78;5027691;28;20050;-59
2022/03/30 11:07:37;;;;;;;6.50;2.83;;;;;;;1.16;44.87;100395.09;5027034;28;20046;-59
2022/03/30 11:10:32;;;;;;;5.68;1.98;;;;;;;1.10;44.58;100405.28;5027523;28;20336;-59
2022/03/30 11:13:11;;;;;;;14.38;2.88;;;;;;;1.01;46.14;100381.88;5027363;28;20111;-60
2022/03/30 11:16:11;;;;;;;6.05;2.28;;;;;;;0.77;46.05;100380.44;5027011;28;20049;-59
2022/03/30 11:19:02;;;;;;;5.78;1.75;;;;;;;0.22;47.01;100307.03;5027536;28;20063;-59
2022/03/30 11:21:33;;;;;;;4.78;2.80;;;;;;;0.68;47.45;100421.38;5027019;28;20122;-59
2022/03/30 11:24:22;;;;;;;5.15;2.72;;;;;;;0.66;46.39;100412.72;5025491;28;20060;-58
2022/03/30 11:27:22;;;;;;;7.15;2.45;;;;;;;0.69;47.18;100443.66;5027231;28;20057;-59
2022/03/30 11:30:10;;;;;;;4.35;1.90;;;;;;;0.72;46.38;100443.75;5026947;28;20050;-59
2022/03/30 11:32:58;;;;;;;6.43;2.40;;;;;;;0.17;47.51;100344.59;5027220;28;20319;-59
2022/03/30 11:35:37;;;;;;;5.88;1.77;;;;;;;0.82;45.71;100440.59;5026935;28;20379;-58
2022/03/30 11:38:10;;;;;;;7.05;2.05;;;;;;;1.02;44.16;100432.50;5027040;28;20398;-59
2022/03/30 11:40:43;;;;;;;4.35;1.35;;;;;;;1.05;45.83;100427.44;5027046;28;20042;-59
2022/03/30 11:43:16;;;;;;;4.78;1.40;;;;;;;1.00;45.80;100439.31;5027302;28;20053;-59
2022/03/30 11:46:00;;;;;;;4.93;1.73;;;;;;;0.76;46.60;100414.72;5027234;28;20049;-59
2022/03/30 11:48:40;;;;;;;4.38;1.80;;;;;;;0.82;47.04;100440.59;5026904;28;20068;-59
2022/03/30 11:51:27;;;;;;;2.97;1.40;;;;;;;0.85;46.57;100456.13;5026703;28;20049;-59
2022/03/30 11:54:14;;;;;;;3.05;1.75;;;;;;;0.79;45.80;100471.38;5026547;28;20046;-58
2022/03/30 11:56:46;;;;;;;2.88;1.58;;;;;;;0.86;47.28;100493.84;5026704;28;20067;-59
2022/03/30 11:59:20;;;;;;;2.80;1.80;;;;;;;0.55;47.42;100450.13;5026583;28;20109;-58
2022/03/30 12:01:54;;;;;;;4.60;1.45;;;;;;;0.71;46.09;100490.03;5026262;28;20100;-59
2022/03/30 12:04:31;;;;;;;2.38;1.55;;;;;;;0.80;45.46;100493.72;5026606;28;20044;-59
2022/03/30 12:07:03;;;;;;;3.78;1.58;;;;;;;0.78;46.58;100515.94;5026690;28;20123;-58
2022/03/30 12:09:34;;;;;;;2.47;1.40;;;;;;;0.77;46.79;100508.16;5026681;28;20065;-59